sensor_id;sensor_type;location;lat;lon;timestamp;temperature;humidity
41557;DHT22;27720;51.992;5.890;2024-02-15T00:00:17;14.60;99.90
41557;DHT22;27720;51.992;5.890;2024-02-15T00:02:43;14.60;99.90
41557;DHT22;27720;51.992;5.890;2024-02-15T00:05:11;14.70;99.90
41557;DHT22;27720;51.992;5.890;2024-02-15T00:07:36;14.70;99.90
41557;DHT22;27720;51.992;5.890;2024-02-15T00:10:02;14.70;99.90
41557;DHT22;27720;51.992;5.890;2024-02-15T00:12:30;14.70;99.90
41557;DHT22;27720;51.992;5.890;2024-02-15T00:14:55;14.70;99.90
41557;DHT22;27720;51.992;5.890;2024-02-15T00:17:27;14.70;99.90
41557;DHT22;27720;51.992;5.890;2024-02-15T00:19:55;14.70;99.90
41557;DHT22;27720;51.992;5.890;2024-02-15T00:22:21;14.70;99.90
41557;DHT22;27720;51.992;5.890;2024-02-15T00:24:47;14.70;99.90
41557;DHT22;27720;51.992;5.890;2024-02-15T00:27:15;14.70;99.90
41557;DHT22;27720;51.992;5.890;2024-02-15T00:29:41;14.70;99.90
41557;DHT22;27720;51.992;5.890;2024-02-15T00:32:09;14.70;99.90
41557;DHT22;27720;51.992;5.890;2024-02-15T00:34:36;14.70;99.90
41557;DHT22;27720;51.992;5.890;2024-02-15T00:37:04;14.80;99.90
41557;DHT22;27720;51.992;5.890;2024-02-15T00:39:30;14.80;99.90
41557;DHT22;27720;51.992;5.890;2024-02-15T00:41:57;14.80;99.90
41557;DHT22;27720;51.992;5.890;2024-02-15T00:44:23;14.90;99.90
41557;DHT22;27720;51.992;5.890;2024-02-15T00:46:49;14.80;99.90
41557;DHT22;27720;51.992;5.890;2024-02-15T00:49:15;14.80;99.90
41557;DHT22;27720;51.992;5.890;2024-02-15T00:51:40;14.80;99.90
41557;DHT22;27720;51.992;5.890;2024-02-15T00:54:06;14.80;99.90
41557;DHT22;27720;51.992;5.890;2024-02-15T00:56:32;14.70;99.90
41557;DHT22;27720;51.992;5.890;2024-02-15T00:58:59;14.80;99.90
41557;DHT22;27720;51.992;5.890;2024-02-15T01:01:28;14.80;99.90
41557;DHT22;27720;51.992;5.890;2024-02-15T01:03:55;14.70;99.90
41557;DHT22;27720;51.992;5.890;2024-02-15T01:06:20;14.70;99.90
41557;DHT22;27720;51.992;5.890;2024-02-15T01:08:46;14.70;99.90
41557;DHT22;27720;51.992;5.890;2024-02-15T01:11:12;14.70;99.90
41557;DHT22;27720;51.992;5.890;2024-02-15T01:13:39;14.80;99.90
41557;DHT22;27720;51.992;5.890;2024-02-15T01:16:06;14.80;99.90
41557;DHT22;27720;51.992;5.890;2024-02-15T01:18:32;14.80;99.90
41557;DHT22;27720;51.992;5.890;2024-02-15T01:20:58;14.70;99.90
41557;DHT22;27720;51.992;5.890;2024-02-15T01:23:24;14.80;99.90
41557;DHT22;27720;51.992;5.890;2024-02-15T01:25:51;14.80;99.90
41557;DHT22;27720;51.992;5.890;2024-02-15T01:28:17;14.80;99.90
41557;DHT22;27720;51.992;5.890;2024-02-15T01:30:43;14.80;99.90
41557;DHT22;27720;51.992;5.890;2024-02-15T01:33:09;14.80;99.90
41557;DHT22;27720;51.992;5.890;2024-02-15T01:35:37;14.90;99.90
41557;DHT22;27720;51.992;5.890;2024-02-15T01:38:03;14.80;99.90
41557;DHT22;27720;51.992;5.890;2024-02-15T01:40:29;14.90;99.90
41557;DHT22;27720;51.992;5.890;2024-02-15T01:42:55;14.90;99.90
41557;DHT22;27720;51.992;5.890;2024-02-15T01:45:21;14.90;99.90
41557;DHT22;27720;51.992;5.890;2024-02-15T01:47:48;14.90;99.90
41557;DHT22;27720;51.992;5.890;2024-02-15T01:50:14;14.90;99.90
41557;DHT22;27720;51.992;5.890;2024-02-15T01:52:43;14.90;99.90
41557;DHT22;27720;51.992;5.890;2024-02-15T01:55:14;14.90;99.90
41557;DHT22;27720;51.992;5.890;2024-02-15T01:57:44;14.90;99.90
41557;DHT22;27720;51.992;5.890;2024-02-15T02:00:11;14.90;99.90
41557;DHT22;27720;51.992;5.890;2024-02-15T02:02:39;14.90;99.90
41557;DHT22;27720;51.992;5.890;2024-02-15T02:05:07;14.90;99.90
41557;DHT22;27720;51.992;5.890;2024-02-15T02:07:33;14.80;99.90
41557;DHT22;27720;51.992;5.890;2024-02-15T02:09:59;14.90;99.90
41557;DHT22;27720;51.992;5.890;2024-02-15T02:12:25;14.80;99.90
41557;DHT22;27720;51.992;5.890;2024-02-15T02:14:56;14.80;99.90
41557;DHT22;27720;51.992;5.890;2024-02-15T02:17:21;14.80;99.90
41557;DHT22;27720;51.992;5.890;2024-02-15T02:19:48;14.80;99.90
41557;DHT22;27720;51.992;5.890;2024-02-15T02:22:17;14.80;99.90
41557;DHT22;27720;51.992;5.890;2024-02-15T02:25:07;14.90;99.90
41557;DHT22;27720;51.992;5.890;2024-02-15T02:27:35;14.80;99.90
41557;DHT22;27720;51.992;5.890;2024-02-15T02:30:03;14.90;99.90
41557;DHT22;27720;51.992;5.890;2024-02-15T02:32:34;14.90;99.90
41557;DHT22;27720;51.992;5.890;2024-02-15T02:35:02;14.90;99.90
41557;DHT22;27720;51.992;5.890;2024-02-15T02:37:28;14.90;99.90
41557;DHT22;27720;51.992;5.890;2024-02-15T02:39:54;14.80;99.90
41557;DHT22;27720;51.992;5.890;2024-02-15T02:42:20;14.80;99.90
41557;DHT22;27720;51.992;5.890;2024-02-15T02:44:46;14.90;99.90
41557;DHT22;27720;51.992;5.890;2024-02-15T02:47:12;14.80;99.90
41557;DHT22;27720;51.992;5.890;2024-02-15T02:49:38;14.80;99.90
41557;DHT22;27720;51.992;5.890;2024-02-15T02:52:04;14.80;99.90
41557;DHT22;27720;51.992;5.890;2024-02-15T02:54:30;14.80;99.90
41557;DHT22;27720;51.992;5.890;2024-02-15T02:56:56;14.80;99.90
41557;DHT22;27720;51.992;5.890;2024-02-15T02:59:21;14.90;99.90
41557;DHT22;27720;51.992;5.890;2024-02-15T03:01:50;14.90;99.90
41557;DHT22;27720;51.992;5.890;2024-02-15T03:04:16;14.80;99.90
41557;DHT22;27720;51.992;5.890;2024-02-15T03:06:44;14.80;99.90
41557;DHT22;27720;51.992;5.890;2024-02-15T03:09:11;14.80;99.90
41557;DHT22;27720;51.992;5.890;2024-02-15T03:11:39;14.80;99.90
41557;DHT22;27720;51.992;5.890;2024-02-15T03:14:05;14.90;99.90
41557;DHT22;27720;51.992;5.890;2024-02-15T03:16:33;14.90;99.90
41557;DHT22;27720;51.992;5.890;2024-02-15T03:18:59;14.90;99.90
41557;DHT22;27720;51.992;5.890;2024-02-15T03:21:30;14.80;99.90
41557;DHT22;27720;51.992;5.890;2024-02-15T03:23:55;14.80;99.90
41557;DHT22;27720;51.992;5.890;2024-02-15T03:26:32;14.80;99.90
41557;DHT22;27720;51.992;5.890;2024-02-15T03:29:06;14.80;99.90
41557;DHT22;27720;51.992;5.890;2024-02-15T03:31:35;14.80;99.90
41557;DHT22;27720;51.992;5.890;2024-02-15T03:34:05;14.80;99.90
41557;DHT22;27720;51.992;5.890;2024-02-15T03:36:31;14.80;99.90
41557;DHT22;27720;51.992;5.890;2024-02-15T03:38:57;14.90;99.90
41557;DHT22;27720;51.992;5.890;2024-02-15T03:41:23;14.90;99.90
41557;DHT22;27720;51.992;5.890;2024-02-15T03:43:48;14.80;99.90
41557;DHT22;27720;51.992;5.890;2024-02-15T03:46:14;14.80;99.90
41557;DHT22;27720;51.992;5.890;2024-02-15T03:48:43;14.80;99.90
41557;DHT22;27720;51.992;5.890;2024-02-15T03:51:16;14.80;99.90
41557;DHT22;27720;51.992;5.890;2024-02-15T03:53:44;14.80;99.90
41557;DHT22;27720;51.992;5.890;2024-02-15T03:56:09;14.80;99.90
41557;DHT22;27720;51.992;5.890;2024-02-15T03:58:35;14.80;99.90
41557;DHT22;27720;51.992;5.890;2024-02-15T04:01:02;14.70;99.90
41557;DHT22;27720;51.992;5.890;2024-02-15T04:03:30;14.70;99.90
41557;DHT22;27720;51.992;5.890;2024-02-15T04:05:57;14.70;99.90
41557;DHT22;27720;51.992;5.890;2024-02-15T04:08:23;14.80;99.90
41557;DHT22;27720;51.992;5.890;2024-02-15T04:10:49;14.70;99.90
41557;DHT22;27720;51.992;5.890;2024-02-15T04:13:15;14.70;99.90
41557;DHT22;27720;51.992;5.890;2024-02-15T04:15:40;14.70;99.90
41557;DHT22;27720;51.992;5.890;2024-02-15T04:18:09;14.70;99.90
41557;DHT22;27720;51.992;5.890;2024-02-15T04:20:37;14.70;99.90
41557;DHT22;27720;51.992;5.890;2024-02-15T04:23:03;14.70;99.90
41557;DHT22;27720;51.992;5.890;2024-02-15T04:25:30;14.70;99.90
41557;DHT22;27720;51.992;5.890;2024-02-15T04:27:56;14.70;99.90
41557;DHT22;27720;51.992;5.890;2024-02-15T04:30:23;14.70;99.90
41557;DHT22;27720;51.992;5.890;2024-02-15T04:32:50;14.70;99.90
41557;DHT22;27720;51.992;5.890;2024-02-15T04:35:17;14.70;99.90
41557;DHT22;27720;51.992;5.890;2024-02-15T04:37:42;14.70;99.90
41557;DHT22;27720;51.992;5.890;2024-02-15T04:40:08;14.60;99.90
41557;DHT22;27720;51.992;5.890;2024-02-15T04:42:36;14.60;99.90
41557;DHT22;27720;51.992;5.890;2024-02-15T04:45:06;14.60;99.90
41557;DHT22;27720;51.992;5.890;2024-02-15T04:47:35;14.60;99.90
41557;DHT22;27720;51.992;5.890;2024-02-15T04:50:01;14.60;99.90
41557;DHT22;27720;51.992;5.890;2024-02-15T04:52:27;14.60;99.90
41557;DHT22;27720;51.992;5.890;2024-02-15T04:54:53;14.60;99.90
41557;DHT22;27720;51.992;5.890;2024-02-15T04:57:24;14.60;99.90
41557;DHT22;27720;51.992;5.890;2024-02-15T04:59:51;14.60;99.90
41557;DHT22;27720;51.992;5.890;2024-02-15T05:02:17;14.60;99.90
41557;DHT22;27720;51.992;5.890;2024-02-15T05:04:42;14.60;99.90
41557;DHT22;27720;51.992;5.890;2024-02-15T05:07:09;14.60;99.90
41557;DHT22;27720;51.992;5.890;2024-02-15T05:09:35;14.50;99.90
41557;DHT22;27720;51.992;5.890;2024-02-15T05:12:01;14.50;99.90
41557;DHT22;27720;51.992;5.890;2024-02-15T05:14:30;14.50;99.90
41557;DHT22;27720;51.992;5.890;2024-02-15T05:16:56;14.50;99.90
41557;DHT22;27720;51.992;5.890;2024-02-15T05:19:22;14.50;99.90
41557;DHT22;27720;51.992;5.890;2024-02-15T05:21:49;14.50;99.90
41557;DHT22;27720;51.992;5.890;2024-02-15T05:24:15;14.50;99.90
41557;DHT22;27720;51.992;5.890;2024-02-15T05:26:43;14.50;99.90
41557;DHT22;27720;51.992;5.890;2024-02-15T05:29:12;14.50;99.90
41557;DHT22;27720;51.992;5.890;2024-02-15T05:31:38;14.50;99.90
41557;DHT22;27720;51.992;5.890;2024-02-15T05:34:05;14.50;99.90
41557;DHT22;27720;51.992;5.890;2024-02-15T05:36:33;14.40;99.90
41557;DHT22;27720;51.992;5.890;2024-02-15T05:38:59;14.40;99.90
41557;DHT22;27720;51.992;5.890;2024-02-15T05:41:25;14.40;99.90
41557;DHT22;27720;51.992;5.890;2024-02-15T05:43:51;14.40;99.90
41557;DHT22;27720;51.992;5.890;2024-02-15T05:46:20;14.40;99.90
41557;DHT22;27720;51.992;5.890;2024-02-15T05:48:49;14.40;99.90
41557;DHT22;27720;51.992;5.890;2024-02-15T05:51:15;14.30;99.90
41557;DHT22;27720;51.992;5.890;2024-02-15T05:53:41;14.30;99.90
41557;DHT22;27720;51.992;5.890;2024-02-15T05:56:08;14.30;99.90
41557;DHT22;27720;51.992;5.890;2024-02-15T05:58:34;14.30;99.90
41557;DHT22;27720;51.992;5.890;2024-02-15T06:01:01;14.30;99.90
41557;DHT22;27720;51.992;5.890;2024-02-15T06:03:31;14.30;99.90
41557;DHT22;27720;51.992;5.890;2024-02-15T06:05:59;14.30;99.90
41557;DHT22;27720;51.992;5.890;2024-02-15T06:08:25;14.30;99.90
41557;DHT22;27720;51.992;5.890;2024-02-15T06:10:52;14.30;99.90
41557;DHT22;27720;51.992;5.890;2024-02-15T06:13:25;14.30;99.90
41557;DHT22;27720;51.992;5.890;2024-02-15T06:15:51;14.30;99.90
41557;DHT22;27720;51.992;5.890;2024-02-15T06:18:20;14.30;99.90
41557;DHT22;27720;51.992;5.890;2024-02-15T06:20:57;14.30;99.90
41557;DHT22;27720;51.992;5.890;2024-02-15T06:23:25;14.40;99.90
41557;DHT22;27720;51.992;5.890;2024-02-15T06:25:54;14.40;99.90
41557;DHT22;27720;51.992;5.890;2024-02-15T06:28:23;14.40;99.90
41557;DHT22;27720;51.992;5.890;2024-02-15T06:31:08;14.40;99.90
41557;DHT22;27720;51.992;5.890;2024-02-15T06:33:53;14.40;99.90
41557;DHT22;27720;51.992;5.890;2024-02-15T06:36:40;14.40;99.90
41557;DHT22;27720;51.992;5.890;2024-02-15T06:39:25;14.40;99.90
41557;DHT22;27720;51.992;5.890;2024-02-15T06:42:10;14.40;99.90
41557;DHT22;27720;51.992;5.890;2024-02-15T06:44:37;14.40;99.90
41557;DHT22;27720;51.992;5.890;2024-02-15T06:47:04;14.30;99.90
41557;DHT22;27720;51.992;5.890;2024-02-15T06:49:29;14.30;99.90
41557;DHT22;27720;51.992;5.890;2024-02-15T06:51:55;14.30;99.90
41557;DHT22;27720;51.992;5.890;2024-02-15T06:54:21;14.40;99.90
41557;DHT22;27720;51.992;5.890;2024-02-15T06:56:48;14.30;99.90
41557;DHT22;27720;51.992;5.890;2024-02-15T06:59:14;14.40;99.90
41557;DHT22;27720;51.992;5.890;2024-02-15T07:01:43;14.40;99.90
41557;DHT22;27720;51.992;5.890;2024-02-15T07:04:09;14.40;99.90
41557;DHT22;27720;51.992;5.890;2024-02-15T07:06:38;14.40;99.90
41557;DHT22;27720;51.992;5.890;2024-02-15T07:09:07;14.40;99.90
41557;DHT22;27720;51.992;5.890;2024-02-15T07:11:33;14.40;99.90
41557;DHT22;27720;51.992;5.890;2024-02-15T07:14:00;14.40;99.90
41557;DHT22;27720;51.992;5.890;2024-02-15T07:16:26;14.40;99.90
41557;DHT22;27720;51.992;5.890;2024-02-15T07:18:52;14.40;99.90
41557;DHT22;27720;51.992;5.890;2024-02-15T07:21:19;14.40;99.90
41557;DHT22;27720;51.992;5.890;2024-02-15T07:23:50;14.50;99.90
41557;DHT22;27720;51.992;5.890;2024-02-15T07:26:17;14.40;99.90
41557;DHT22;27720;51.992;5.890;2024-02-15T07:28:45;14.40;99.90
41557;DHT22;27720;51.992;5.890;2024-02-15T07:31:13;14.40;99.90
41557;DHT22;27720;51.992;5.890;2024-02-15T07:33:40;14.50;99.90
41557;DHT22;27720;51.992;5.890;2024-02-15T07:36:08;14.50;99.90
41557;DHT22;27720;51.992;5.890;2024-02-15T07:38:34;14.50;99.90
41557;DHT22;27720;51.992;5.890;2024-02-15T07:41:00;14.50;99.90
41557;DHT22;27720;51.992;5.890;2024-02-15T07:43:26;14.60;99.90
41557;DHT22;27720;51.992;5.890;2024-02-15T07:45:53;14.60;99.90
41557;DHT22;27720;51.992;5.890;2024-02-15T07:48:18;14.50;99.90
41557;DHT22;27720;51.992;5.890;2024-02-15T07:50:44;14.60;99.90
41557;DHT22;27720;51.992;5.890;2024-02-15T07:53:10;14.60;99.90
41557;DHT22;27720;51.992;5.890;2024-02-15T07:55:37;14.60;99.90
41557;DHT22;27720;51.992;5.890;2024-02-15T07:58:04;14.60;99.90
41557;DHT22;27720;51.992;5.890;2024-02-15T08:00:30;14.60;99.90
41557;DHT22;27720;51.992;5.890;2024-02-15T08:02:56;14.50;99.90
41557;DHT22;27720;51.992;5.890;2024-02-15T08:05:23;14.50;99.90
41557;DHT22;27720;51.992;5.890;2024-02-15T08:07:48;14.50;99.90
41557;DHT22;27720;51.992;5.890;2024-02-15T08:10:15;14.40;99.90
41557;DHT22;27720;51.992;5.890;2024-02-15T08:12:45;14.40;99.90
41557;DHT22;27720;51.992;5.890;2024-02-15T08:15:11;14.40;99.90
41557;DHT22;27720;51.992;5.890;2024-02-15T08:17:44;14.40;99.90
41557;DHT22;27720;51.992;5.890;2024-02-15T08:20:14;14.40;99.90
41557;DHT22;27720;51.992;5.890;2024-02-15T08:22:40;14.40;99.90
41557;DHT22;27720;51.992;5.890;2024-02-15T08:25:13;14.40;99.90
41557;DHT22;27720;51.992;5.890;2024-02-15T08:27:42;14.40;99.90
41557;DHT22;27720;51.992;5.890;2024-02-15T08:30:11;14.40;99.90
41557;DHT22;27720;51.992;5.890;2024-02-15T08:32:40;14.40;99.90
41557;DHT22;27720;51.992;5.890;2024-02-15T08:35:08;14.40;99.90
41557;DHT22;27720;51.992;5.890;2024-02-15T08:37:35;14.40;99.90
41557;DHT22;27720;51.992;5.890;2024-02-15T08:40:06;14.40;99.90
41557;DHT22;27720;51.992;5.890;2024-02-15T08:42:44;14.40;99.90
41557;DHT22;27720;51.992;5.890;2024-02-15T08:45:11;14.50;99.90
41557;DHT22;27720;51.992;5.890;2024-02-15T08:47:42;14.50;99.90
41557;DHT22;27720;51.992;5.890;2024-02-15T08:50:12;14.50;99.90
41557;DHT22;27720;51.992;5.890;2024-02-15T08:52:39;14.50;99.90
41557;DHT22;27720;51.992;5.890;2024-02-15T08:55:05;14.60;99.90
41557;DHT22;27720;51.992;5.890;2024-02-15T08:57:33;14.60;99.90
41557;DHT22;27720;51.992;5.890;2024-02-15T08:59:59;14.60;99.90
41557;DHT22;27720;51.992;5.890;2024-02-15T09:02:24;14.50;99.90
41557;DHT22;27720;51.992;5.890;2024-02-15T09:04:50;14.60;99.90
41557;DHT22;27720;51.992;5.890;2024-02-15T09:07:16;14.50;99.90
41557;DHT22;27720;51.992;5.890;2024-02-15T09:09:42;14.60;99.90
41557;DHT22;27720;51.992;5.890;2024-02-15T09:12:07;14.60;99.90
41557;DHT22;27720;51.992;5.890;2024-02-15T09:14:33;14.50;99.90
41557;DHT22;27720;51.992;5.890;2024-02-15T09:17:00;14.50;99.90
41557;DHT22;27720;51.992;5.890;2024-02-15T09:19:26;14.50;99.90
41557;DHT22;27720;51.992;5.890;2024-02-15T09:21:51;14.50;99.90
41557;DHT22;27720;51.992;5.890;2024-02-15T09:24:17;14.50;99.90
41557;DHT22;27720;51.992;5.890;2024-02-15T09:26:43;14.50;99.90
41557;DHT22;27720;51.992;5.890;2024-02-15T09:29:10;14.50;99.90
41557;DHT22;27720;51.992;5.890;2024-02-15T09:31:36;14.60;99.90
41557;DHT22;27720;51.992;5.890;2024-02-15T09:34:02;14.60;99.90
41557;DHT22;27720;51.992;5.890;2024-02-15T09:36:35;14.60;99.90
41557;DHT22;27720;51.992;5.890;2024-02-15T09:39:03;14.60;99.90
41557;DHT22;27720;51.992;5.890;2024-02-15T09:41:30;14.50;99.90
41557;DHT22;27720;51.992;5.890;2024-02-15T09:43:57;14.50;99.90
41557;DHT22;27720;51.992;5.890;2024-02-15T09:46:23;14.40;99.90
41557;DHT22;27720;51.992;5.890;2024-02-15T09:48:51;14.40;99.90
41557;DHT22;27720;51.992;5.890;2024-02-15T09:51:25;14.40;99.90
41557;DHT22;27720;51.992;5.890;2024-02-15T09:53:51;14.40;99.90
41557;DHT22;27720;51.992;5.890;2024-02-15T09:56:18;14.40;99.90
41557;DHT22;27720;51.992;5.890;2024-02-15T09:58:44;14.50;99.90
41557;DHT22;27720;51.992;5.890;2024-02-15T10:01:10;14.50;99.90
41557;DHT22;27720;51.992;5.890;2024-02-15T10:03:41;14.50;99.90
41557;DHT22;27720;51.992;5.890;2024-02-15T10:06:07;14.50;99.90
41557;DHT22;27720;51.992;5.890;2024-02-15T10:08:32;14.50;99.90
41557;DHT22;27720;51.992;5.890;2024-02-15T10:11:08;14.50;99.90
41557;DHT22;27720;51.992;5.890;2024-02-15T10:13:34;14.50;99.90
41557;DHT22;27720;51.992;5.890;2024-02-15T10:18:39;14.50;99.90
41557;DHT22;27720;51.992;5.890;2024-02-15T10:21:05;14.50;99.90
41557;DHT22;27720;51.992;5.890;2024-02-15T10:23:30;14.50;99.90
41557;DHT22;27720;51.992;5.890;2024-02-15T10:25:56;14.50;99.90
41557;DHT22;27720;51.992;5.890;2024-02-15T10:28:23;14.50;99.90
41557;DHT22;27720;51.992;5.890;2024-02-15T10:30:50;14.60;99.90
41557;DHT22;27720;51.992;5.890;2024-02-15T10:33:28;14.50;99.90
41557;DHT22;27720;51.992;5.890;2024-02-15T10:36:10;14.50;99.90
41557;DHT22;27720;51.992;5.890;2024-02-15T10:38:37;14.50;99.90
41557;DHT22;27720;51.992;5.890;2024-02-15T10:41:07;14.60;99.90
41557;DHT22;27720;51.992;5.890;2024-02-15T10:43:34;14.60;99.90
41557;DHT22;27720;51.992;5.890;2024-02-15T10:46:00;14.60;99.90
41557;DHT22;27720;51.992;5.890;2024-02-15T10:48:26;14.70;99.90
41557;DHT22;27720;51.992;5.890;2024-02-15T10:51:03;14.70;99.90
41557;DHT22;27720;51.992;5.890;2024-02-15T10:53:35;14.70;99.90
41557;DHT22;27720;51.992;5.890;2024-02-15T10:56:23;14.70;99.90
41557;DHT22;27720;51.992;5.890;2024-02-15T11:01:32;14.70;99.90
41557;DHT22;27720;51.992;5.890;2024-02-15T11:04:04;14.70;99.90
41557;DHT22;27720;51.992;5.890;2024-02-15T11:06:35;14.70;99.90
41557;DHT22;27720;51.992;5.890;2024-02-15T11:09:01;14.70;99.90
41557;DHT22;27720;51.992;5.890;2024-02-15T11:11:29;14.60;99.90
41557;DHT22;27720;51.992;5.890;2024-02-15T11:14:28;14.60;99.90
41557;DHT22;27720;51.992;5.890;2024-02-15T11:17:00;14.70;99.90
41557;DHT22;27720;51.992;5.890;2024-02-15T11:22:11;14.80;99.90
41557;DHT22;27720;51.992;5.890;2024-02-15T11:24:52;14.80;99.90
41557;DHT22;27720;51.992;5.890;2024-02-15T11:27:29;14.80;99.90
41557;DHT22;27720;51.992;5.890;2024-02-15T11:29:59;14.90;99.90
41557;DHT22;27720;51.992;5.890;2024-02-15T11:35:25;14.90;99.90
41557;DHT22;27720;51.992;5.890;2024-02-15T11:42:59;15.00;99.90
41557;DHT22;27720;51.992;5.890;2024-02-15T11:45:26;15.00;99.90
41557;DHT22;27720;51.992;5.890;2024-02-15T11:47:55;15.00;99.90
41557;DHT22;27720;51.992;5.890;2024-02-15T11:50:22;15.00;99.90
41557;DHT22;27720;51.992;5.890;2024-02-15T11:52:49;15.00;99.90
41557;DHT22;27720;51.992;5.890;2024-02-15T11:55:20;15.10;99.90
41557;DHT22;27720;51.992;5.890;2024-02-15T11:57:59;15.10;99.90
41557;DHT22;27720;51.992;5.890;2024-02-15T12:00:35;15.10;99.90
41557;DHT22;27720;51.992;5.890;2024-02-15T12:03:20;15.10;99.90
41557;DHT22;27720;51.992;5.890;2024-02-15T12:06:05;15.20;99.90
41557;DHT22;27720;51.992;5.890;2024-02-15T12:08:51;15.20;99.90
41557;DHT22;27720;51.992;5.890;2024-02-15T12:11:35;15.30;99.90
41557;DHT22;27720;51.992;5.890;2024-02-15T12:14:19;15.30;99.90
41557;DHT22;27720;51.992;5.890;2024-02-15T12:17:05;15.40;99.90
41557;DHT22;27720;51.992;5.890;2024-02-15T12:19:54;15.50;99.90
41557;DHT22;27720;51.992;5.890;2024-02-15T12:22:28;15.60;99.90
41557;DHT22;27720;51.992;5.890;2024-02-15T12:25:00;15.70;99.90
41557;DHT22;27720;51.992;5.890;2024-02-15T12:27:26;15.70;99.90
41557;DHT22;27720;51.992;5.890;2024-02-15T12:29:59;15.80;99.90
41557;DHT22;27720;51.992;5.890;2024-02-15T12:32:26;15.80;99.90
41557;DHT22;27720;51.992;5.890;2024-02-15T12:34:53;15.90;99.90
41557;DHT22;27720;51.992;5.890;2024-02-15T12:37:20;15.90;99.90
41557;DHT22;27720;51.992;5.890;2024-02-15T12:39:47;16.00;99.90
41557;DHT22;27720;51.992;5.890;2024-02-15T12:42:14;15.90;99.90
41557;DHT22;27720;51.992;5.890;2024-02-15T12:44:46;16.00;99.90
41557;DHT22;27720;51.992;5.890;2024-02-15T12:47:20;16.00;99.90
41557;DHT22;27720;51.992;5.890;2024-02-15T12:49:47;16.10;99.90
41557;DHT22;27720;51.992;5.890;2024-02-15T12:55:20;16.10;99.90
41557;DHT22;27720;51.992;5.890;2024-02-15T12:57:51;16.20;99.90
41557;DHT22;27720;51.992;5.890;2024-02-15T13:02:47;16.20;99.90
41557;DHT22;27720;51.992;5.890;2024-02-15T13:05:19;16.30;99.90
41557;DHT22;27720;51.992;5.890;2024-02-15T13:07:49;16.40;99.90
41557;DHT22;27720;51.992;5.890;2024-02-15T13:10:15;16.40;99.90
41557;DHT22;27720;51.992;5.890;2024-02-15T13:12:42;16.40;99.90
41557;DHT22;27720;51.992;5.890;2024-02-15T13:15:11;16.50;99.90
41557;DHT22;27720;51.992;5.890;2024-02-15T13:17:43;16.50;99.90
41557;DHT22;27720;51.992;5.890;2024-02-15T13:20:10;16.50;99.90
41557;DHT22;27720;51.992;5.890;2024-02-15T13:22:42;16.50;99.90
41557;DHT22;27720;51.992;5.890;2024-02-15T13:25:13;16.50;99.90
41557;DHT22;27720;51.992;5.890;2024-02-15T13:27:42;16.50;99.90
41557;DHT22;27720;51.992;5.890;2024-02-15T13:30:09;16.50;99.90
41557;DHT22;27720;51.992;5.890;2024-02-15T13:32:37;16.50;99.90
41557;DHT22;27720;51.992;5.890;2024-02-15T13:35:09;16.60;99.90
41557;DHT22;27720;51.992;5.890;2024-02-15T13:37:41;16.60;99.90
41557;DHT22;27720;51.992;5.890;2024-02-15T13:40:11;16.60;99.90
41557;DHT22;27720;51.992;5.890;2024-02-15T13:42:47;16.60;99.90
41557;DHT22;27720;51.992;5.890;2024-02-15T13:45:23;16.60;99.90
41557;DHT22;27720;51.992;5.890;2024-02-15T13:47:52;16.60;99.90
41557;DHT22;27720;51.992;5.890;2024-02-15T13:50:22;16.60;99.90
41557;DHT22;27720;51.992;5.890;2024-02-15T13:52:49;16.70;99.90
41557;DHT22;27720;51.992;5.890;2024-02-15T13:55:16;16.70;99.90
41557;DHT22;27720;51.992;5.890;2024-02-15T13:57:44;16.70;99.90
41557;DHT22;27720;51.992;5.890;2024-02-15T14:00:14;16.70;99.90
41557;DHT22;27720;51.992;5.890;2024-02-15T14:02:53;16.80;99.90
41557;DHT22;27720;51.992;5.890;2024-02-15T14:05:21;16.80;99.90
41557;DHT22;27720;51.992;5.890;2024-02-15T14:07:54;16.80;99.90
41557;DHT22;27720;51.992;5.890;2024-02-15T14:10:21;16.80;99.90
41557;DHT22;27720;51.992;5.890;2024-02-15T14:12:50;16.80;99.90
41557;DHT22;27720;51.992;5.890;2024-02-15T14:15:18;16.80;99.90
41557;DHT22;27720;51.992;5.890;2024-02-15T14:17:47;16.80;99.90
41557;DHT22;27720;51.992;5.890;2024-02-15T14:20:13;16.90;99.90
41557;DHT22;27720;51.992;5.890;2024-02-15T14:22:47;16.90;99.90
41557;DHT22;27720;51.992;5.890;2024-02-15T14:25:18;16.90;99.90
41557;DHT22;27720;51.992;5.890;2024-02-15T14:27:44;16.90;99.90
41557;DHT22;27720;51.992;5.890;2024-02-15T14:30:10;16.90;99.90
41557;DHT22;27720;51.992;5.890;2024-02-15T14:32:54;16.90;99.90
41557;DHT22;27720;51.992;5.890;2024-02-15T14:35:38;16.90;99.90
41557;DHT22;27720;51.992;5.890;2024-02-15T14:38:09;16.90;99.90
41557;DHT22;27720;51.992;5.890;2024-02-15T14:40:42;16.90;99.90
41557;DHT22;27720;51.992;5.890;2024-02-15T14:43:11;16.90;99.90
41557;DHT22;27720;51.992;5.890;2024-02-15T14:45:39;16.90;99.90
41557;DHT22;27720;51.992;5.890;2024-02-15T14:48:08;16.90;99.90
41557;DHT22;27720;51.992;5.890;2024-02-15T14:50:41;17.00;99.90
41557;DHT22;27720;51.992;5.890;2024-02-15T14:53:07;16.90;99.90
41557;DHT22;27720;51.992;5.890;2024-02-15T14:55:36;17.00;99.90
41557;DHT22;27720;51.992;5.890;2024-02-15T14:58:07;17.00;99.90
41557;DHT22;27720;51.992;5.890;2024-02-15T15:00:34;17.00;99.90
41557;DHT22;27720;51.992;5.890;2024-02-15T15:03:00;17.10;99.90
41557;DHT22;27720;51.992;5.890;2024-02-15T15:05:25;17.00;99.90
41557;DHT22;27720;51.992;5.890;2024-02-15T15:08:09;17.10;99.90
41557;DHT22;27720;51.992;5.890;2024-02-15T15:10:55;17.10;99.90
41557;DHT22;27720;51.992;5.890;2024-02-15T15:13:39;17.10;99.90
41557;DHT22;27720;51.992;5.890;2024-02-15T15:16:07;17.10;99.90
41557;DHT22;27720;51.992;5.890;2024-02-15T15:18:33;17.10;99.90
41557;DHT22;27720;51.992;5.890;2024-02-15T15:21:02;17.10;99.90
41557;DHT22;27720;51.992;5.890;2024-02-15T15:23:30;17.10;99.90
41557;DHT22;27720;51.992;5.890;2024-02-15T15:26:00;17.10;99.90
41557;DHT22;27720;51.992;5.890;2024-02-15T15:28:27;17.10;99.90
41557;DHT22;27720;51.992;5.890;2024-02-15T15:30:53;17.10;99.90
41557;DHT22;27720;51.992;5.890;2024-02-15T15:33:20;17.10;99.90
41557;DHT22;27720;51.992;5.890;2024-02-15T15:35:50;17.10;99.90
41557;DHT22;27720;51.992;5.890;2024-02-15T15:38:16;17.00;99.90
41557;DHT22;27720;51.992;5.890;2024-02-15T15:40:41;17.10;99.90
41557;DHT22;27720;51.992;5.890;2024-02-15T15:43:08;17.10;99.90
41557;DHT22;27720;51.992;5.890;2024-02-15T15:45:34;17.00;99.90
41557;DHT22;27720;51.992;5.890;2024-02-15T15:48:01;17.00;99.90
41557;DHT22;27720;51.992;5.890;2024-02-15T15:50:27;17.00;99.90
41557;DHT22;27720;51.992;5.890;2024-02-15T15:52:54;17.00;99.90
41557;DHT22;27720;51.992;5.890;2024-02-15T15:55:22;17.00;99.90
41557;DHT22;27720;51.992;5.890;2024-02-15T15:57:48;17.00;99.90
41557;DHT22;27720;51.992;5.890;2024-02-15T16:00:13;17.00;99.90